Time;durP1;ratioP1;P1;durP2;ratioP2;P2;SDS_P1;SDS_P2;PMS_P1;PMS_P2;Temp;Humidity;BMP_temperature;BMP_pressure;BME280_temperature;BME280_humidity;BME280_pressure;Samples;Min_cycle;Max_cycle;Signal;HPM_P1;HPM_P2
2023/02/16 00:00:26;;;;;;;12.10;10.45;;;20.80;35.30;;;;;;5061738;28;20082;-54
2023/02/16 00:02:52;;;;;;;12.75;11.18;;;20.90;35.40;;;;;;5063530;28;20075;-54
2023/02/16 00:05:25;;;;;;;12.05;10.45;;;20.80;35.30;;;;;;5062605;28;20079;-53
2023/02/16 00:07:54;;;;;;;14.05;11.45;;;20.80;35.30;;;;;;5058885;28;20028;-52
2023/02/16 00:10:20;;;;;;;13.82;11.40;;;20.80;35.30;;;;;;5062506;28;20457;-53
2023/02/16 00:15:30;;;;;;;;;;;20.80;35.30;;;;;;5062716;28;20083;-54
2023/02/16 00:18:01;;;;;;;13.63;10.57;;;20.80;35.30;;;;;;5061328;28;19961;-52
2023/02/16 00:20:30;;;;;;;14.75;10.90;;;20.80;35.30;;;;;;5044734;28;20482;-55
2023/02/16 00:22:56;;;;;;;14.48;11.48;;;20.80;35.90;;;;;;5062407;28;20029;-52
2023/02/16 00:25:22;;;;;;;12.60;9.82;;;20.80;35.30;;;;;;5053497;28;20609;-54
2023/02/16 00:27:48;;;;;;;14.27;10.65;;;20.80;35.30;;;;;;5065674;28;20021;-54
2023/02/16 00:30:14;;;;;;;13.80;10.35;;;20.80;35.30;;;;;;5062270;28;20040;-54
2023/02/16 00:32:40;;;;;;;12.65;9.98;;;20.80;35.30;;;;;;5045796;28;20036;-54
2023/02/16 00:35:20;;;;;;;13.85;11.00;;;20.80;35.30;;;;;;5062639;28;20028;-53
2023/02/16 00:37:47;;;;;;;13.57;10.88;;;20.80;35.20;;;;;;5064561;28;20036;-52
2023/02/16 00:40:14;;;;;;;12.93;10.10;;;20.80;35.20;;;;;;5061445;28;20388;-52
2023/02/16 00:42:45;;;;;;;14.63;10.32;;;20.80;35.20;;;;;;5063847;28;20025;-53
2023/02/16 00:45:19;;;;;;;12.13;9.52;;;20.70;35.20;;;;;;5060271;28;20025;-52
2023/02/16 00:47:49;;;;;;;12.18;9.98;;;20.80;35.30;;;;;;5066142;28;20103;-52
2023/02/16 00:50:25;;;;;;;12.90;10.50;;;20.70;35.20;;;;;;5045026;28;20547;-54
2023/02/16 00:52:51;;;;;;;13.40;10.48;;;20.80;35.30;;;;;;5058230;28;20028;-55
2023/02/16 00:55:21;;;;;;;12.95;10.23;;;20.70;35.20;;;;;;5062641;28;20025;-55
2023/02/16 00:57:56;;;;;;;12.43;10.48;;;20.70;35.20;;;;;;5054757;28;20068;-53
2023/02/16 01:00:30;;;;;;;13.63;10.20;;;20.80;35.20;;;;;;5056435;28;20412;-52
2023/02/16 01:03:02;;;;;;;12.60;9.85;;;20.70;35.80;;;;;;5061799;28;20420;-52
2023/02/16 01:05:29;;;;;;;14.63;10.70;;;20.80;35.20;;;;;;5045344;28;20077;-53
2023/02/16 01:13:28;;;;;;;15.40;9.95;;;20.70;35.10;;;;;;5047448;28;20054;-55
2023/02/16 01:15:55;;;;;;;12.70;9.93;;;20.70;35.10;;;;;;5060833;28;20072;-54
2023/02/16 01:18:21;;;;;;;12.02;9.65;;;20.70;35.10;;;;;;5063134;28;20044;-54
2023/02/16 01:20:50;;;;;;;13.00;10.25;;;20.70;35.10;;;;;;5042206;28;20052;-55
2023/02/16 01:23:15;;;;;;;11.90;10.07;;;20.70;35.10;;;;;;5044300;28;20060;-53
2023/02/16 01:25:42;;;;;;;12.18;10.18;;;20.70;35.10;;;;;;5064325;28;20028;-55
2023/02/16 01:28:20;;;;;;;11.77;9.38;;;20.70;35.10;;;;;;5061184;28;20016;-53
2023/02/16 01:30:46;;;;;;;12.77;9.80;;;20.70;35.10;;;;;;5060059;28;20067;-52
2023/02/16 01:33:12;;;;;;;13.25;9.63;;;20.70;35.10;;;;;;5064754;28;20025;-55
2023/02/16 01:35:38;;;;;;;12.88;9.98;;;20.70;35.00;;;;;;5057706;28;20091;-52
2023/02/16 01:38:04;;;;;;;14.00;9.68;;;20.60;35.00;;;;;;5057178;28;20025;-53
2023/02/16 01:40:33;;;;;;;11.80;9.70;;;20.60;35.00;;;;;;5066320;28;20031;-54
2023/02/16 01:43:27;;;;;;;11.77;9.98;;;20.70;35.00;;;;;;5042438;28;20343;-53
2023/02/16 01:45:59;;;;;;;;;;;20.60;35.00;;;;;;5039358;28;20033;-53
2023/02/16 01:48:30;;;;;;;12.13;9.80;;;20.60;35.00;;;;;;5061418;28;19939;-54
2023/02/16 01:51:11;;;;;;;10.88;9.45;;;20.60;35.00;;;;;;5062772;28;20041;-52
2023/02/16 01:53:37;;;;;;;12.20;9.70;;;20.60;35.00;;;;;;5045232;28;20345;-54
2023/02/16 01:56:09;;;;;;;11.18;9.27;;;20.60;35.00;;;;;;5039385;28;20125;-55
2023/02/16 01:58:58;;;;;;;11.43;9.77;;;20.60;35.00;;;;;;5043455;28;20059;-52
2023/02/16 02:01:54;;;;;;;11.57;9.48;;;20.60;35.00;;;;;;5048226;28;20029;-53
2023/02/16 02:07:57;;;;;;;13.18;9.90;;;20.60;35.00;;;;;;5061504;28;20046;-49
2023/02/16 02:10:43;;;;;;;12.38;9.73;;;20.60;34.90;;;;;;5058870;28;20318;-52
2023/02/16 02:13:14;;;;;;;12.57;9.65;;;20.60;35.00;;;;;;5050693;28;20130;-51
2023/02/16 02:15:40;;;;;;;11.43;10.02;;;20.50;34.90;;;;;;5044766;28;20477;-55
2023/02/16 02:18:06;;;;;;;10.98;9.07;;;20.60;35.00;;;;;;5037825;28;20043;-53
2023/02/16 02:24:20;;;;;;;12.98;9.82;;;20.50;34.90;;;;;;5056925;28;20479;-52
2023/02/16 02:27:06;;;;;;;11.20;9.05;;;20.50;34.90;;;;;;4966086;28;20071;-50
2023/02/16 02:30:01;;;;;;;12.02;10.30;;;20.50;34.90;;;;;;5042172;28;20028;-51
2023/02/16 02:32:49;;;;;;;10.75;9.23;;;20.50;34.90;;;;;;5041884;28;20029;-54
2023/02/16 02:35:34;;;;;;;11.85;9.30;;;20.50;34.90;;;;;;5044572;28;20035;-49
2023/02/16 02:38:22;;;;;;;11.48;9.25;;;20.50;34.80;;;;;;5042256;28;20077;-51
2023/02/16 02:40:57;;;;;;;13.18;10.38;;;20.50;34.80;;;;;;5057222;28;20120;-51
2023/02/16 02:43:28;;;;;;;12.07;9.93;;;20.50;34.90;;;;;;5049210;28;20367;-48
2023/02/16 02:45:59;;;;;;;10.88;9.27;;;20.50;34.90;;;;;;5042569;28;20028;-51
2023/02/16 02:48:32;;;;;;;10.88;9.15;;;20.50;34.90;;;;;;5041515;28;20467;-54
2023/02/16 03:02:29;;;;;;;11.68;9.13;;;20.50;34.90;;;;;;5041859;28;20033;-51
2023/02/16 03:04:58;;;;;;;11.90;9.27;;;20.50;34.90;;;;;;5033663;28;20061;-50
2023/02/16 03:07:45;;;;;;;11.90;9.20;;;20.50;34.80;;;;;;5061918;28;20043;-52
2023/02/16 03:13:04;;;;;;;11.50;9.68;;;20.50;34.80;;;;;;5062909;28;20125;-49
2023/02/16 03:15:31;;;;;;;11.02;9.02;;;20.40;34.80;;;;;;5062080;28;20063;-50
2023/02/16 03:29:23;;;;;;;12.90;9.02;;;20.40;34.80;;;;;;5064735;28;20676;-53
2023/02/16 03:31:51;;;;;;;12.77;9.48;;;20.40;34.80;;;;;;5062057;28;20106;-53
2023/02/16 03:34:18;;;;;;;11.00;9.35;;;20.40;34.80;;;;;;5063354;28;20352;-53
2023/02/16 03:36:49;;;;;;;11.20;9.57;;;20.40;34.80;;;;;;5063348;28;20077;-53
2023/02/16 03:39:17;;;;;;;13.93;10.98;;;20.40;34.70;;;;;;5064636;28;20052;-54
2023/02/16 03:41:48;;;;;;;10.63;9.52;;;20.40;34.80;;;;;;5058845;28;20029;-53
2023/02/16 03:44:14;;;;;;;11.63;9.25;;;20.40;34.70;;;;;;5060711;28;20047;-55
2023/02/16 03:46:40;;;;;;;12.30;9.35;;;20.40;34.70;;;;;;5066020;28;20028;-49
2023/02/16 03:49:07;;;;;;;12.35;9.95;;;20.40;34.70;;;;;;5048090;28;20550;-51
2023/02/16 03:51:33;;;;;;;11.85;9.80;;;20.40;34.70;;;;;;5064116;28;20114;-51
2023/02/16 03:53:59;;;;;;;12.10;10.02;;;20.40;34.70;;;;;;5064455;28;20024;-49
2023/02/16 03:56:25;;;;;;;12.00;10.05;;;20.40;34.70;;;;;;5060951;28;20025;-52
2023/02/16 03:58:51;;;;;;;12.15;10.35;;;20.40;34.70;;;;;;5065216;28;20036;-50
2023/02/16 04:01:17;;;;;;;10.50;8.88;;;20.40;34.70;;;;;;5067276;28;20332;-54
2023/02/16 04:03:42;;;;;;;11.95;9.88;;;20.40;35.30;;;;;;5064880;28;20746;-52
2023/02/16 04:06:08;;;;;;;12.50;9.88;;;20.40;34.70;;;;;;5065824;28;20032;-54
2023/02/16 04:08:34;;;;;;;11.75;9.40;;;20.40;34.70;;;;;;5061724;28;20043;-53
2023/02/16 04:12:34;;;;;;;11.65;9.40;;;20.40;34.70;;;;;;5047452;28;20036;-52
2023/02/16 04:13:46;;;;;;;11.15;8.85;;;20.40;34.70;;;;;;5062017;28;20033;-49
2023/02/16 04:16:12;;;;;;;10.75;9.10;;;20.40;34.70;;;;;;5059501;28;20046;-50
2023/02/16 04:18:38;;;;;;;13.50;9.60;;;20.40;34.70;;;;;;5061418;28;20542;-49
2023/02/16 04:21:04;;;;;;;11.57;9.57;;;20.40;34.70;;;;;;5065593;28;20419;-54
2023/02/16 04:23:30;;;;;;;12.20;10.00;;;20.40;34.70;;;;;;5060105;28;20021;-53
2023/02/16 04:25:55;;;;;;;11.30;9.02;;;20.40;34.70;;;;;;5067393;28;20435;-51
2023/02/16 04:28:21;;;;;;;10.60;9.00;;;20.40;34.80;;;;;;5062684;28;20028;-51
2023/02/16 04:30:47;;;;;;;11.88;9.65;;;20.40;34.80;;;;;;5064075;28;20040;-54
2023/02/16 04:33:13;;;;;;;12.98;9.90;;;20.40;34.90;;;;;;5065135;28;20437;-51
2023/02/16 04:35:39;;;;;;;12.00;9.90;;;20.40;34.90;;;;;;5064175;28;20028;-53
2023/02/16 04:38:04;;;;;;;12.20;9.60;;;20.40;34.90;;;;;;5045706;28;20024;-53
2023/02/16 04:40:30;;;;;;;12.02;9.95;;;20.40;34.90;;;;;;5064325;28;20442;-54
2023/02/16 04:42:56;;;;;;;11.65;9.43;;;20.40;34.90;;;;;;5043870;28;20040;-55
2023/02/16 04:45:22;;;;;;;10.98;9.20;;;20.30;34.80;;;;;;5059883;28;20585;-51
2023/02/16 04:47:48;;;;;;;11.73;9.07;;;20.40;34.90;;;;;;5066652;28;20089;-53
2023/02/16 04:50:13;;;;;;;10.95;9.43;;;20.40;34.90;;;;;;5063568;28;20068;-49
2023/02/16 04:52:40;;;;;;;10.68;9.13;;;20.40;34.80;;;;;;5065391;28;20032;-53
2023/02/16 04:55:09;;;;;;;12.30;9.95;;;20.30;34.80;;;;;;5057584;28;20047;-51
2023/02/16 04:57:39;;;;;;;12.25;9.80;;;20.30;34.80;;;;;;5057329;28;20037;-49
2023/02/16 05:00:10;;;;;;;12.43;10.10;;;20.30;34.80;;;;;;5058323;28;20035;-50
2023/02/16 05:02:36;;;;;;;11.23;9.50;;;20.30;34.80;;;;;;5055902;28;20031;-52
2023/02/16 05:05:03;;;;;;;12.15;10.18;;;20.30;34.80;;;;;;5055940;28;20432;-54
2023/02/16 05:07:29;;;;;;;12.73;9.90;;;20.30;34.80;;;;;;5062884;28;20081;-50
2023/02/16 05:09:54;;;;;;;10.90;9.35;;;20.30;34.80;;;;;;5057544;28;20033;-49
2023/02/16 05:15:05;;;;;;;10.88;9.43;;;20.30;34.80;;;;;;5062293;28;20064;-51
2023/02/16 05:17:31;;;;;;;12.15;10.23;;;20.30;34.80;;;;;;5060140;28;20089;-49
2023/02/16 05:20:00;;;;;;;12.98;9.95;;;20.30;34.80;;;;;;5060094;28;20032;-50
2023/02/16 05:22:33;;;;;;;12.15;9.90;;;20.30;34.80;;;;;;5061545;28;20032;-51
2023/02/16 05:25:00;;;;;;;12.18;9.80;;;20.30;34.80;;;;;;5055908;28;20094;-52
2023/02/16 05:27:28;;;;;;;12.73;10.48;;;20.30;34.80;;;;;;5061489;28;20035;-53
2023/02/16 05:29:54;;;;;;;11.77;10.25;;;20.30;34.80;;;;;;5057880;28;20029;-50
2023/02/16 05:32:20;;;;;;;13.05;10.07;;;20.30;34.90;;;;;;5062639;28;20036;-51
2023/02/16 05:34:47;;;;;;;12.85;10.00;;;20.30;34.80;;;;;;5065089;28;20024;-50
2023/02/16 05:37:14;;;;;;;13.55;10.82;;;20.30;34.90;;;;;;5058408;28;20036;-53
2023/02/16 05:39:40;;;;;;;12.32;10.40;;;20.30;34.90;;;;;;5060776;28;20360;-55
2023/02/16 05:42:06;;;;;;;12.10;10.23;;;20.30;34.90;;;;;;5061696;28;20040;-53
2023/02/16 05:44:32;;;;;;;12.05;10.45;;;20.30;34.90;;;;;;5063565;28;20021;-49
2023/02/16 05:46:58;;;;;;;11.65;9.93;;;20.30;34.90;;;;;;5062148;28;20029;-50
2023/02/16 05:49:24;;;;;;;13.00;10.40;;;20.30;34.90;;;;;;5061142;28;20052;-51
2023/02/16 05:51:50;;;;;;;11.52;10.15;;;20.30;34.90;;;;;;5059778;28;20356;-52
2023/02/16 05:54:16;;;;;;;12.63;10.38;;;20.20;34.80;;;;;;5064760;28;20036;-52
2023/02/16 05:56:47;;;;;;;14.43;11.07;;;20.20;34.90;;;;;;5055853;28;20423;-51
2023/02/16 05:59:14;;;;;;;11.80;10.15;;;20.20;34.90;;;;;;5060802;28;20029;-54
2023/02/16 06:01:41;;;;;;;13.90;9.95;;;20.30;35.00;;;;;;5061479;28;20025;-54
2023/02/16 06:04:09;;;;;;;11.27;9.65;;;20.20;35.00;;;;;;5061979;28;20024;-51
2023/02/16 06:06:37;;;;;;;11.75;9.70;;;20.20;34.90;;;;;;5063454;28;20163;-51
2023/02/16 06:09:05;;;;;;;11.45;9.75;;;20.20;34.90;;;;;;5056620;28;20063;-53
2023/02/16 06:11:37;;;;;;;12.48;10.23;;;20.20;34.90;;;;;;5066665;28;20040;-54
2023/02/16 06:14:08;;;;;;;13.85;10.15;;;20.20;34.90;;;;;;5063952;28;20029;-57
2023/02/16 06:16:35;;;;;;;11.77;10.02;;;20.20;34.90;;;;;;5062415;28;20055;-54
2023/02/16 06:19:01;;;;;;;12.75;10.27;;;20.30;35.00;;;;;;5057520;28;20028;-54
2023/02/16 06:21:28;;;;;;;11.40;9.32;;;20.20;35.00;;;;;;5065491;28;20061;-54
2023/02/16 06:23:54;;;;;;;12.80;9.70;;;20.20;35.00;;;;;;5063212;28;20043;-54
2023/02/16 06:26:20;;;;;;;15.07;10.15;;;20.20;35.00;;;;;;5060653;28;20056;-54
2023/02/16 06:28:46;;;;;;;12.75;10.30;;;20.20;35.00;;;;;;5040121;28;20020;-50
2023/02/16 06:31:12;;;;;;;12.00;10.13;;;20.20;35.00;;;;;;5055488;28;20045;-49
2023/02/16 06:33:38;;;;;;;12.90;10.70;;;20.20;35.10;;;;;;5058796;28;20032;-53
2023/02/16 06:36:04;;;;;;;12.77;9.63;;;20.20;35.10;;;;;;5057389;28;20636;-53
2023/02/16 06:38:30;;;;;;;13.30;10.50;;;20.20;35.10;;;;;;5056930;28;20036;-50
2023/02/16 06:40:56;;;;;;;12.73;10.43;;;20.20;35.10;;;;;;5062469;28;20024;-51
2023/02/16 06:43:22;;;;;;;12.98;10.60;;;20.20;35.00;;;;;;5053372;28;20027;-55
2023/02/16 06:45:48;;;;;;;13.85;11.13;;;20.20;35.00;;;;;;5054348;28;20478;-53
2023/02/16 06:48:13;;;;;;;14.73;11.60;;;20.20;35.00;;;;;;5057281;28;20130;-51
2023/02/16 06:50:39;;;;;;;14.52;11.38;;;20.20;35.00;;;;;;5057761;28;20556;-54
2023/02/16 06:53:05;;;;;;;13.82;11.07;;;20.20;35.00;;;;;;5053132;28;20024;-53
2023/02/16 06:55:35;;;;;;;13.93;11.18;;;20.20;34.90;;;;;;5054994;28;20453;-51
2023/02/16 06:58:05;;;;;;;15.02;11.10;;;20.20;34.90;;;;;;5052457;28;20112;-54
2023/02/16 07:00:32;;;;;;;13.45;11.38;;;20.20;34.90;;;;;;5061090;28;20436;-55
2023/02/16 07:02:58;;;;;;;14.82;11.60;;;20.20;34.90;;;;;;5052773;28;20075;-55
2023/02/16 07:05:24;;;;;;;13.07;11.02;;;20.10;34.80;;;;;;5057243;28;20104;-54
2023/02/16 07:07:51;;;;;;;13.50;11.25;;;20.10;34.80;;;;;;5057722;28;20138;-55
2023/02/16 07:10:17;;;;;;;12.35;10.35;;;20.10;34.80;;;;;;5054950;28;20041;-52
2023/02/16 07:12:42;;;;;;;14.20;10.77;;;20.10;34.90;;;;;;5053454;28;20156;-51
2023/02/16 07:15:09;;;;;;;13.82;10.73;;;20.10;34.90;;;;;;5055271;28;20104;-56
2023/02/16 07:17:35;;;;;;;13.38;10.98;;;20.10;34.90;;;;;;5052273;28;20547;-51
2023/02/16 07:20:01;;;;;;;13.95;10.43;;;20.10;35.00;;;;;;5057703;28;20031;-53
2023/02/16 07:22:28;;;;;;;12.93;10.57;;;20.10;35.00;;;;;;5060802;28;20078;-51
2023/02/16 07:24:56;;;;;;;14.05;11.02;;;20.10;35.00;;;;;;5063620;28;20087;-50
2023/02/16 07:27:22;;;;;;;15.57;10.90;;;20.10;35.00;;;;;;5043217;28;20516;-53
2023/02/16 07:29:48;;;;;;;11.82;10.23;;;20.10;35.00;;;;;;5055460;28;20025;-54
2023/02/16 07:32:14;;;;;;;13.23;10.63;;;20.10;35.00;;;;;;5055569;28;20090;-52
2023/02/16 07:34:40;;;;;;;13.25;10.32;;;20.10;35.10;;;;;;5054014;28;20053;-54
2023/02/16 07:37:06;;;;;;;12.82;10.02;;;20.10;35.10;;;;;;5052846;28;20060;-55
2023/02/16 07:39:32;;;;;;;16.30;9.88;;;20.10;35.20;;;;;;5035350;28;20112;-55
2023/02/16 07:41:59;;;;;;;13.85;9.07;;;20.10;35.40;;;;;;5057478;28;20028;-57
2023/02/16 07:44:25;;;;;;;13.30;9.57;;;20.10;35.80;;;;;;5040421;28;20039;-59
2023/02/16 07:46:51;;;;;;;10.50;8.82;;;20.10;36.10;;;;;;5057725;28;20441;-57
2023/02/16 07:49:17;;;;;;;12.70;9.80;;;20.10;36.20;;;;;;5059582;28;20428;-56
2023/02/16 07:51:43;;;;;;;10.80;9.30;;;20.20;36.40;;;;;;5073811;28;20047;-57
2023/02/16 07:54:09;;;;;;;12.13;9.27;;;20.20;36.40;;;;;;5074189;28;20039;-57
2023/02/16 07:56:35;;;;;;;12.65;10.02;;;20.30;36.30;;;;;;5074061;28;20032;-57
2023/02/16 07:59:03;;;;;;;12.68;9.10;;;20.40;36.10;;;;;;5053469;28;20439;-54
2023/02/16 08:01:30;;;;;;;11.55;9.23;;;20.50;35.90;;;;;;5064477;28;20029;-56
2023/02/16 08:03:56;;;;;;;10.38;8.73;;;20.60;35.50;;;;;;5064609;28;20448;-55
2023/02/16 08:06:22;;;;;;;11.82;9.15;;;20.70;35.30;;;;;;5065974;28;20111;-55
2023/02/16 08:08:48;;;;;;;11.15;9.10;;;20.80;35.00;;;;;;5065100;28;20115;-55
2023/02/16 08:11:23;;;;;;;12.63;9.02;;;20.90;34.80;;;;;;5063650;28;20044;-56
2023/02/16 08:13:50;;;;;;;11.55;9.00;;;21.00;34.60;;;;;;5065309;28;20051;-56
2023/02/16 08:16:23;;;;;;;14.57;9.38;;;21.00;34.50;;;;;;5064133;28;20037;-55
2023/02/16 08:18:50;;;;;;;12.00;8.07;;;21.10;34.30;;;;;;5064108;28;20094;-56
2023/02/16 08:21:18;;;;;;;12.07;8.50;;;21.20;34.20;;;;;;5046454;28;20155;-55
2023/02/16 08:23:46;;;;;;;11.52;8.48;;;21.20;34.10;;;;;;5064801;28;20036;-56
2023/02/16 08:26:14;;;;;;;12.35;8.82;;;21.30;34.00;;;;;;5065975;28;20075;-56
2023/02/16 08:28:44;;;;;;;9.73;8.38;;;21.30;33.90;;;;;;5065668;28;20111;-54
2023/02/16 08:31:15;;;;;;;9.35;7.95;;;21.40;33.80;;;;;;5067188;28;20036;-53
2023/02/16 08:33:42;;;;;;;8.98;7.97;;;21.40;33.70;;;;;;5063902;28;20063;-54
2023/02/16 08:36:31;;;;;;;9.55;7.75;;;21.50;33.70;;;;;;5065653;28;20025;-56
2023/02/16 08:38:59;;;;;;;9.27;7.47;;;21.60;33.60;;;;;;5065857;28;20025;-55
2023/02/16 08:41:31;;;;;;;10.07;7.75;;;21.60;33.60;;;;;;5062999;28;20093;-53
2023/02/16 08:43:59;;;;;;;10.32;7.78;;;21.60;33.40;;;;;;5063763;28;20139;-56
2023/02/16 08:46:27;;;;;;;12.32;8.15;;;21.70;33.40;;;;;;5057890;28;20037;-56
2023/02/16 08:48:58;;;;;;;10.23;7.65;;;21.70;33.40;;;;;;5057050;28;20320;-54
2023/02/16 08:51:29;;;;;;;8.30;6.93;;;21.80;33.60;;;;;;5061217;28;20036;-52
2023/02/16 08:53:57;;;;;;;7.50;6.70;;;21.80;33.60;;;;;;5063484;28;20123;-52
2023/02/16 08:56:23;;;;;;;9.00;6.85;;;21.90;33.50;;;;;;5063745;28;20441;-53
2023/02/16 08:58:49;;;;;;;7.43;6.35;;;21.90;33.40;;;;;;5062941;28;20111;-55
2023/02/16 09:01:15;;;;;;;8.23;6.72;;;21.90;33.40;;;;;;5065787;28;20028;-54
2023/02/16 09:03:43;;;;;;;8.10;6.82;;;21.90;33.30;;;;;;5062668;28;20025;-55
2023/02/16 09:06:11;;;;;;;9.02;7.07;;;21.90;33.30;;;;;;5067087;28;20025;-56
2023/02/16 09:08:37;;;;;;;7.70;6.80;;;21.90;33.20;;;;;;5063899;28;20032;-53
2023/02/16 09:11:05;;;;;;;9.40;6.38;;;21.90;33.20;;;;;;5066561;28;20071;-54
2023/02/16 09:13:34;;;;;;;7.57;6.70;;;21.90;33.30;;;;;;5062093;28;20120;-52
2023/02/16 09:16:05;;;;;;;7.43;6.57;;;21.80;33.20;;;;;;5063911;28;20044;-51
2023/02/16 09:18:31;;;;;;;9.40;7.13;;;21.80;33.20;;;;;;5062640;28;20058;-52
2023/02/16 09:21:05;;;;;;;8.52;6.82;;;21.80;33.30;;;;;;5062878;28;20025;-54
2023/02/16 09:23:34;;;;;;;9.63;7.68;;;21.80;33.30;;;;;;5064150;28;20059;-52
2023/02/16 09:26:01;;;;;;;9.07;6.22;;;21.80;33.40;;;;;;5062005;28;20027;-55
2023/02/16 09:28:27;;;;;;;7.80;6.50;;;21.70;33.40;;;;;;5063860;28;20083;-55
2023/02/16 09:30:53;;;;;;;10.35;7.32;;;21.70;33.40;;;;;;5065268;28;20468;-53
2023/02/16 09:33:20;;;;;;;8.68;7.05;;;21.70;33.50;;;;;;5064599;28;20025;-52
2023/02/16 09:35:46;;;;;;;9.20;6.93;;;21.70;33.50;;;;;;5062376;28;20029;-54
2023/02/16 09:38:15;;;;;;;8.75;6.93;;;21.60;33.50;;;;;;5063113;28;20091;-52
2023/02/16 09:40:42;;;;;;;9.02;6.75;;;21.60;33.50;;;;;;5064279;28;20098;-52
2023/02/16 09:43:28;;;;;;;9.55;7.20;;;21.60;33.60;;;;;;5061654;28;20036;-54
2023/02/16 09:45:57;;;;;;;8.80;6.97;;;21.60;33.60;;;;;;5063061;28;20035;-53
2023/02/16 09:48:41;;;;;;;8.77;7.00;;;21.50;33.60;;;;;;5064892;28;20029;-53
2023/02/16 09:51:13;;;;;;;9.05;7.50;;;21.60;33.80;;;;;;5063851;28;20056;-54
2023/02/16 09:53:42;;;;;;;8.65;7.10;;;21.50;33.80;;;;;;5063048;28;20353;-55
2023/02/16 09:56:31;;;;;;;9.05;7.30;;;21.50;33.80;;;;;;5060430;28;20033;-53
2023/02/16 09:59:11;;;;;;;9.20;7.03;;;21.50;33.90;;;;;;5064668;28;20119;-54
2023/02/16 10:02:11;;;;;;;8.50;6.93;;;21.50;33.90;;;;;;5059342;28;20491;-53
2023/02/16 10:05:03;;;;;;;9.10;7.10;;;21.50;34.00;;;;;;5061467;28;20045;-54
2023/02/16 10:07:52;;;;;;;10.90;7.30;;;21.50;34.10;;;;;;5047918;28;20041;-53
2023/02/16 10:10:24;;;;;;;8.90;6.80;;;21.40;34.20;;;;;;5024302;28;20112;-54
2023/02/16 10:12:59;;;;;;;8.50;6.78;;;21.40;34.30;;;;;;5060524;28;20112;-53
2023/02/16 10:15:29;;;;;;;7.97;6.43;;;21.40;34.30;;;;;;5063363;28;20048;-53
2023/02/16 10:17:57;;;;;;;10.57;7.50;;;21.40;34.40;;;;;;5063343;28;20037;-50
2023/02/16 10:20:32;;;;;;;7.22;5.90;;;21.40;34.50;;;;;;5061592;28;20046;-54
2023/02/16 10:23:06;;;;;;;;;;;21.40;34.50;;;;;;5058154;28;20440;-54
2023/02/16 10:25:53;;;;;;;9.23;7.35;;;21.40;34.60;;;;;;5059180;28;20336;-52
2023/02/16 10:28:47;;;;;;;10.25;6.55;;;21.40;34.80;;;;;;5056709;28;20036;-53
2023/02/16 10:31:28;;;;;;;8.90;6.78;;;21.40;35.00;;;;;;5059552;28;20064;-54
2023/02/16 10:34:03;;;;;;;8.18;6.18;;;21.30;35.20;;;;;;5064048;28;20051;-52
2023/02/16 10:36:35;;;;;;;11.02;7.00;;;21.40;35.50;;;;;;5061216;28;20395;-58
2023/02/16 10:39:33;;;;;;;9.07;6.60;;;21.30;35.60;;;;;;5064556;28;20048;-55
2023/02/16 10:42:16;;;;;;;8.02;6.72;;;21.40;35.70;;;;;;5061296;28;20452;-53
2023/02/16 10:45:09;;;;;;;9.20;6.50;;;21.30;35.70;;;;;;5064394;28;20107;-55
2023/02/16 10:47:41;;;;;;;8.52;6.85;;;21.30;35.70;;;;;;5027598;28;20067;-56
2023/02/16 10:50:18;;;;;;;9.90;7.00;;;21.30;35.70;;;;;;5061600;28;20020;-53
2023/02/16 10:52:44;;;;;;;8.95;7.03;;;21.30;35.70;;;;;;5061614;28;20056;-56
2023/02/16 10:55:11;;;;;;;11.18;7.00;;;21.30;35.70;;;;;;5061637;28;20029;-54
2023/02/16 10:57:39;;;;;;;9.65;6.97;;;21.30;35.70;;;;;;5063110;28;20052;-54
2023/02/16 11:00:17;;;;;;;8.57;6.78;;;21.30;35.80;;;;;;5062393;28;20119;-54
2023/02/16 11:02:50;;;;;;;10.85;7.00;;;21.30;35.80;;;;;;5064837;28;20081;-55
2023/02/16 11:05:25;;;;;;;9.25;6.75;;;21.30;35.90;;;;;;5062058;28;20094;-53
2023/02/16 11:07:53;;;;;;;9.85;7.03;;;21.30;35.90;;;;;;5060750;28;20040;-54
2023/02/16 11:10:32;;;;;;;9.55;7.13;;;21.30;35.90;;;;;;5063575;28;20037;-54
2023/02/16 11:12:58;;;;;;;9.38;7.28;;;21.30;35.90;;;;;;5059721;28;20033;-55
2023/02/16 11:15:26;;;;;;;7.78;6.45;;;21.30;35.90;;;;;;5064707;28;20455;-55
2023/02/16 11:18:03;;;;;;;9.32;7.00;;;21.30;36.00;;;;;;5061900;28;20020;-54
2023/02/16 11:20:39;;;;;;;8.40;6.90;;;21.20;36.00;;;;;;5061700;28;20103;-52
2023/02/16 11:23:13;;;;;;;9.02;6.63;;;21.20;36.00;;;;;;5060062;28;20024;-53
2023/02/16 11:25:39;;;;;;;8.63;6.30;;;21.30;36.10;;;;;;5062037;28;20039;-50
2023/02/16 11:28:10;;;;;;;9.90;6.22;;;21.20;36.30;;;;;;5061360;28;20078;-53
2023/02/16 11:30:39;;;;;;;7.88;6.28;;;21.20;36.40;;;;;;5060921;28;20429;-50
2023/02/16 11:33:22;;;;;;;9.55;6.60;;;21.20;36.40;;;;;;5063092;28;20036;-51
2023/02/16 11:35:48;;;;;;;9.88;5.95;;;21.20;36.40;;;;;;5063757;28;20040;-53
2023/02/16 11:38:35;;;;;;;7.28;6.10;;;21.20;36.40;;;;;;5065279;28;20363;-53
2023/02/16 11:41:05;;;;;;;7.63;6.55;;;21.20;36.50;;;;;;5064470;28;20036;-53
2023/02/16 11:43:36;;;;;;;6.93;5.80;;;21.30;36.80;;;;;;5066016;28;20075;-52
2023/02/16 11:46:08;;;;;;;6.75;5.57;;;21.30;37.10;;;;;;5067297;28;20021;-53
2023/02/16 11:48:35;;;;;;;7.80;5.95;;;21.30;37.30;;;;;;5061987;28;20029;-53
2023/02/16 11:51:05;;;;;;;7.40;5.68;;;21.30;37.40;;;;;;5061730;28;20502;-57
2023/02/16 11:53:33;;;;;;;7.75;5.78;;;21.40;37.60;;;;;;5048310;28;20033;-51
2023/02/16 11:56:23;;;;;;;6.80;5.45;;;21.40;37.90;;;;;;5065481;28;20043;-55
2023/02/16 11:59:06;;;;;;;6.05;5.00;;;21.40;37.80;;;;;;5065194;28;20039;-57
2023/02/16 12:01:46;;;;;;;7.70;5.32;;;21.50;37.90;;;;;;5066727;28;20447;-53
2023/02/16 12:04:39;;;;;;;7.30;5.38;;;21.40;38.00;;;;;;5064265;28;20025;-54
2023/02/16 12:07:26;;;;;;;9.57;6.20;;;21.50;38.10;;;;;;5067585;28;20029;-55
2023/02/16 12:10:09;;;;;;;5.93;5.13;;;21.50;38.10;;;;;;5062451;28;20052;-53
2023/02/16 12:12:50;;;;;;;9.30;5.07;;;21.50;38.10;;;;;;5069193;28;20044;-54
2023/02/16 12:15:41;;;;;;;7.88;5.30;;;21.60;38.20;;;;;;5056171;28;20376;-48
2023/02/16 12:18:13;;;;;;;6.40;4.97;;;21.60;38.30;;;;;;5077114;28;20025;-49
2023/02/16 12:20:50;;;;;;;7.88;5.15;;;21.60;38.40;;;;;;5062864;28;20033;-48
2023/02/16 12:23:30;;;;;;;6.72;4.90;;;21.60;38.30;;;;;;5062355;28;20029;-53
2023/02/16 12:26:06;;;;;;;6.88;4.75;;;21.70;38.30;;;;;;5057400;28;20348;-50
2023/02/16 12:28:43;;;;;;;8.05;4.72;;;21.70;38.20;;;;;;5057288;28;20039;-53
2023/02/16 12:31:20;;;;;;;7.97;5.45;;;21.70;38.10;;;;;;5064085;28;20040;-51
2023/02/16 12:34:12;;;;;;;9.82;5.63;;;21.70;38.00;;;;;;5067915;28;20028;-52
2023/02/16 12:36:57;;;;;;;7.38;5.32;;;21.80;37.90;;;;;;5013966;28;20033;-52
2023/02/16 12:39:35;;;;;;;6.70;5.45;;;21.70;37.70;;;;;;5056659;28;20036;-48
2023/02/16 12:42:39;;;;;;;8.05;5.60;;;21.80;37.50;;;;;;5058465;28;20029;-48
2023/02/16 12:45:14;;;;;;;7.50;5.70;;;21.80;37.40;;;;;;5066664;28;20029;-49
2023/02/16 12:47:49;;;;;;;6.75;5.55;;;21.80;37.40;;;;;;5059169;28;20040;-55
2023/02/16 12:50:19;;;;;;;6.35;5.10;;;21.80;37.30;;;;;;5067440;28;20505;-50
2023/02/16 12:52:54;;;;;;;8.10;6.32;;;21.80;37.20;;;;;;5063224;28;20395;-52
2023/02/16 12:55:32;;;;;;;7.18;5.18;;;21.80;37.20;;;;;;5061011;28;20021;-59
2023/02/16 12:58:27;;;;;;;7.60;5.60;;;21.80;37.20;;;;;;5069250;28;20037;-52
2023/02/16 13:00:57;;;;;;;6.70;5.43;;;21.80;37.10;;;;;;5061256;28;20047;-52
2023/02/16 13:04:00;;;;;;;7.30;5.22;;;21.80;37.10;;;;;;5063574;28;20462;-51
2023/02/16 13:06:52;;;;;;;7.07;5.63;;;21.80;37.10;;;;;;5070124;28;20115;-47
2023/02/16 13:09:35;;;;;;;7.57;5.38;;;21.80;37.10;;;;;;5029914;28;20045;-54
2023/02/16 13:12:06;;;;;;;6.43;5.03;;;21.80;37.00;;;;;;5067754;28;20459;-50
2023/02/16 13:14:38;;;;;;;10.30;5.90;;;21.80;37.00;;;;;;5075951;28;20044;-51
2023/02/16 13:17:29;;;;;;;7.90;5.20;;;21.80;37.00;;;;;;5066599;28;20044;-51
2023/02/16 13:19:55;;;;;;;6.35;5.07;;;21.80;37.00;;;;;;5063236;28;20036;-50
2023/02/16 13:22:47;;;;;;;6.40;5.13;;;21.80;37.00;;;;;;5065508;28;20084;-52
2023/02/16 13:26:01;;;;;;;8.10;4.90;;;21.90;37.00;;;;;;5066655;28;20123;-51
2023/02/16 13:29:00;;;;;;;7.03;5.15;;;21.90;37.00;;;;;;4952821;28;20097;-53
2023/02/16 13:31:55;;;;;;;6.68;5.35;;;21.90;37.00;;;;;;5068978;28;20114;-50
2023/02/16 13:34:25;;;;;;;5.72;4.88;;;21.90;37.00;;;;;;5065285;28;20032;-48
2023/02/16 13:37:16;;;;;;;7.43;5.45;;;21.90;37.00;;;;;;5055627;28;20068;-53
2023/02/16 13:40:09;;;;;;;7.63;5.95;;;21.80;36.90;;;;;;5037492;28;20448;-51
2023/02/16 13:42:56;;;;;;;7.35;5.30;;;21.80;37.00;;;;;;5055607;28;20369;-52
2023/02/16 13:45:28;;;;;;;6.45;5.40;;;21.80;37.00;;;;;;5055567;28;20028;-50